sensor_id;sensor_type;location;lat;lon;timestamp;temperature;humidity
26707;DHT22;14319;49.422;10.934;2023-07-31T00:00:17;17.80;71.30
26707;DHT22;14319;49.422;10.934;2023-07-31T00:02:18;17.80;71.50
26707;DHT22;14319;49.422;10.934;2023-07-31T00:04:18;17.80;72.00
26707;DHT22;14319;49.422;10.934;2023-07-31T00:06:19;17.80;71.90
26707;DHT22;14319;49.422;10.934;2023-07-31T00:08:19;17.80;72.00
26707;DHT22;14319;49.422;10.934;2023-07-31T00:10:20;17.70;72.70
26707;DHT22;14319;49.422;10.934;2023-07-31T00:12:21;17.90;72.50
26707;DHT22;14319;49.422;10.934;2023-07-31T00:14:22;17.70;72.30
26707;DHT22;14319;49.422;10.934;2023-07-31T00:16:23;17.80;72.30
26707;DHT22;14319;49.422;10.934;2023-07-31T00:18:23;17.80;71.80
26707;DHT22;14319;49.422;10.934;2023-07-31T00:20:24;17.80;70.70
26707;DHT22;14319;49.422;10.934;2023-07-31T00:22:25;17.80;71.20
26707;DHT22;14319;49.422;10.934;2023-07-31T00:24:25;17.80;72.00
26707;DHT22;14319;49.422;10.934;2023-07-31T00:26:26;17.70;71.20
26707;DHT22;14319;49.422;10.934;2023-07-31T00:28:27;17.60;71.20
26707;DHT22;14319;49.422;10.934;2023-07-31T00:30:29;17.60;71.70
26707;DHT22;14319;49.422;10.934;2023-07-31T00:32:29;17.80;72.60
26707;DHT22;14319;49.422;10.934;2023-07-31T00:34:30;17.70;72.50
26707;DHT22;14319;49.422;10.934;2023-07-31T00:36:30;17.80;71.20
26707;DHT22;14319;49.422;10.934;2023-07-31T00:38:31;17.70;71.20
26707;DHT22;14319;49.422;10.934;2023-07-31T00:40:36;17.70;72.20
26707;DHT22;14319;49.422;10.934;2023-07-31T00:42:38;17.60;72.40
26707;DHT22;14319;49.422;10.934;2023-07-31T00:44:39;17.50;72.00
26707;DHT22;14319;49.422;10.934;2023-07-31T00:46:39;17.40;72.30
26707;DHT22;14319;49.422;10.934;2023-07-31T00:48:40;17.50;71.80
26707;DHT22;14319;49.422;10.934;2023-07-31T00:50:41;17.60;72.20
26707;DHT22;14319;49.422;10.934;2023-07-31T00:52:41;17.60;72.90
26707;DHT22;14319;49.422;10.934;2023-07-31T00:54:42;17.40;71.80
26707;DHT22;14319;49.422;10.934;2023-07-31T00:56:45;17.40;72.90
26707;DHT22;14319;49.422;10.934;2023-07-31T00:58:46;17.30;73.30
26707;DHT22;14319;49.422;10.934;2023-07-31T01:00:46;17.30;73.70
26707;DHT22;14319;49.422;10.934;2023-07-31T01:02:48;17.40;74.00
26707;DHT22;14319;49.422;10.934;2023-07-31T01:04:49;17.30;72.90
26707;DHT22;14319;49.422;10.934;2023-07-31T01:07:02;17.10;73.00
26707;DHT22;14319;49.422;10.934;2023-07-31T01:09:34;17.00;74.10
26707;DHT22;14319;49.422;10.934;2023-07-31T01:11:48;17.20;74.50
26707;DHT22;14319;49.422;10.934;2023-07-31T01:13:49;17.20;74.40
26707;DHT22;14319;49.422;10.934;2023-07-31T01:15:49;17.20;73.70
26707;DHT22;14319;49.422;10.934;2023-07-31T01:17:50;17.30;74.60
26707;DHT22;14319;49.422;10.934;2023-07-31T01:19:51;17.30;74.10
26707;DHT22;14319;49.422;10.934;2023-07-31T01:26:29;17.50;73.70
26707;DHT22;14319;49.422;10.934;2023-07-31T01:29:10;17.50;73.40
26707;DHT22;14319;49.422;10.934;2023-07-31T01:31:16;17.50;73.80
26707;DHT22;14319;49.422;10.934;2023-07-31T01:33:18;17.50;73.10
26707;DHT22;14319;49.422;10.934;2023-07-31T01:35:20;17.60;74.30
26707;DHT22;14319;49.422;10.934;2023-07-31T01:37:20;17.50;72.70
26707;DHT22;14319;49.422;10.934;2023-07-31T01:39:21;17.50;73.50
26707;DHT22;14319;49.422;10.934;2023-07-31T01:41:21;17.40;72.80
26707;DHT22;14319;49.422;10.934;2023-07-31T01:43:22;17.40;73.40
26707;DHT22;14319;49.422;10.934;2023-07-31T01:45:24;17.20;73.50
26707;DHT22;14319;49.422;10.934;2023-07-31T01:47:24;17.30;74.60
26707;DHT22;14319;49.422;10.934;2023-07-31T01:49:26;17.40;74.30
26707;DHT22;14319;49.422;10.934;2023-07-31T01:51:27;17.30;73.40
26707;DHT22;14319;49.422;10.934;2023-07-31T01:53:28;17.30;74.90
26707;DHT22;14319;49.422;10.934;2023-07-31T01:55:29;17.30;73.80
26707;DHT22;14319;49.422;10.934;2023-07-31T01:57:29;17.30;74.00
26707;DHT22;14319;49.422;10.934;2023-07-31T01:59:30;17.30;74.50
26707;DHT22;14319;49.422;10.934;2023-07-31T02:01:30;17.30;74.70
26707;DHT22;14319;49.422;10.934;2023-07-31T02:03:31;17.50;74.60
26707;DHT22;14319;49.422;10.934;2023-07-31T02:05:31;17.50;74.80
26707;DHT22;14319;49.422;10.934;2023-07-31T02:07:32;17.50;74.10
26707;DHT22;14319;49.422;10.934;2023-07-31T02:09:33;17.60;73.40
26707;DHT22;14319;49.422;10.934;2023-07-31T02:11:33;17.70;73.30
26707;DHT22;14319;49.422;10.934;2023-07-31T02:13:34;17.70;73.60
26707;DHT22;14319;49.422;10.934;2023-07-31T02:15:35;17.70;73.40
26707;DHT22;14319;49.422;10.934;2023-07-31T02:17:36;17.70;73.00
26707;DHT22;14319;49.422;10.934;2023-07-31T02:19:36;17.70;73.90
26707;DHT22;14319;49.422;10.934;2023-07-31T02:21:37;17.70;73.20
26707;DHT22;14319;49.422;10.934;2023-07-31T02:23:38;17.70;74.10
26707;DHT22;14319;49.422;10.934;2023-07-31T02:25:39;17.70;73.60
26707;DHT22;14319;49.422;10.934;2023-07-31T02:27:40;17.80;73.80
26707;DHT22;14319;49.422;10.934;2023-07-31T02:29:40;17.80;72.50
26707;DHT22;14319;49.422;10.934;2023-07-31T02:31:41;17.70;73.30
26707;DHT22;14319;49.422;10.934;2023-07-31T02:33:42;17.60;73.30
26707;DHT22;14319;49.422;10.934;2023-07-31T02:35:43;17.60;74.30
26707;DHT22;14319;49.422;10.934;2023-07-31T02:37:44;17.60;73.90
26707;DHT22;14319;49.422;10.934;2023-07-31T02:39:44;17.40;73.60
26707;DHT22;14319;49.422;10.934;2023-07-31T02:41:45;17.30;75.10
26707;DHT22;14319;49.422;10.934;2023-07-31T02:43:46;17.50;74.80
26707;DHT22;14319;49.422;10.934;2023-07-31T02:45:51;17.60;73.80
26707;DHT22;14319;49.422;10.934;2023-07-31T02:47:52;17.60;74.50
26707;DHT22;14319;49.422;10.934;2023-07-31T02:49:52;17.50;73.90
26707;DHT22;14319;49.422;10.934;2023-07-31T02:51:53;17.50;74.10
26707;DHT22;14319;49.422;10.934;2023-07-31T02:53:53;17.60;74.70
26707;DHT22;14319;49.422;10.934;2023-07-31T02:55:56;17.40;74.70
26707;DHT22;14319;49.422;10.934;2023-07-31T02:57:57;17.50;75.80
26707;DHT22;14319;49.422;10.934;2023-07-31T02:59:58;17.70;75.60
26707;DHT22;14319;49.422;10.934;2023-07-31T03:01:59;17.60;73.80
26707;DHT22;14319;49.422;10.934;2023-07-31T03:04:00;17.60;73.60
26707;DHT22;14319;49.422;10.934;2023-07-31T03:06:00;17.50;74.20
26707;DHT22;14319;49.422;10.934;2023-07-31T03:08:01;17.50;74.60
26707;DHT22;14319;49.422;10.934;2023-07-31T03:10:02;17.50;75.30
26707;DHT22;14319;49.422;10.934;2023-07-31T03:12:03;17.60;75.10
26707;DHT22;14319;49.422;10.934;2023-07-31T03:14:03;17.50;73.50
26707;DHT22;14319;49.422;10.934;2023-07-31T03:16:04;17.50;74.70
26707;DHT22;14319;49.422;10.934;2023-07-31T03:18:05;17.50;74.80
26707;DHT22;14319;49.422;10.934;2023-07-31T03:20:05;17.50;73.80
26707;DHT22;14319;49.422;10.934;2023-07-31T03:22:06;17.50;74.30
26707;DHT22;14319;49.422;10.934;2023-07-31T03:24:07;17.50;74.30
26707;DHT22;14319;49.422;10.934;2023-07-31T03:26:07;17.40;74.70
26707;DHT22;14319;49.422;10.934;2023-07-31T03:28:08;17.40;75.10
26707;DHT22;14319;49.422;10.934;2023-07-31T03:30:09;17.40;75.10
26707;DHT22;14319;49.422;10.934;2023-07-31T03:32:10;17.50;74.80
26707;DHT22;14319;49.422;10.934;2023-07-31T03:34:11;17.50;76.10
26707;DHT22;14319;49.422;10.934;2023-07-31T03:36:12;17.50;74.80
26707;DHT22;14319;49.422;10.934;2023-07-31T03:38:12;17.30;74.10
26707;DHT22;14319;49.422;10.934;2023-07-31T03:40:13;17.30;75.10
26707;DHT22;14319;49.422;10.934;2023-07-31T03:42:14;17.30;74.10
26707;DHT22;14319;49.422;10.934;2023-07-31T03:44:15;17.20;75.00
26707;DHT22;14319;49.422;10.934;2023-07-31T03:46:15;17.30;74.10
26707;DHT22;14319;49.422;10.934;2023-07-31T03:48:16;17.20;74.80
26707;DHT22;14319;49.422;10.934;2023-07-31T03:50:17;17.20;74.50
26707;DHT22;14319;49.422;10.934;2023-07-31T03:52:17;17.30;75.60
26707;DHT22;14319;49.422;10.934;2023-07-31T03:54:20;17.20;75.40
26707;DHT22;14319;49.422;10.934;2023-07-31T03:56:20;17.10;75.30
26707;DHT22;14319;49.422;10.934;2023-07-31T03:58:21;17.00;76.10
26707;DHT22;14319;49.422;10.934;2023-07-31T04:00:22;16.70;75.30
26707;DHT22;14319;49.422;10.934;2023-07-31T04:02:23;16.70;75.50
26707;DHT22;14319;49.422;10.934;2023-07-31T04:04:23;16.70;76.20
26707;DHT22;14319;49.422;10.934;2023-07-31T04:06:24;16.70;77.40
26707;DHT22;14319;49.422;10.934;2023-07-31T04:08:25;16.70;77.10
26707;DHT22;14319;49.422;10.934;2023-07-31T04:10:25;16.70;76.80
26707;DHT22;14319;49.422;10.934;2023-07-31T04:12:26;16.80;76.10
26707;DHT22;14319;49.422;10.934;2023-07-31T04:14:26;16.70;76.10
26707;DHT22;14319;49.422;10.934;2023-07-31T04:16:27;16.80;77.50
26707;DHT22;14319;49.422;10.934;2023-07-31T04:18:28;17.00;76.20
26707;DHT22;14319;49.422;10.934;2023-07-31T04:20:28;17.10;76.30
26707;DHT22;14319;49.422;10.934;2023-07-31T04:22:29;17.10;76.40
26707;DHT22;14319;49.422;10.934;2023-07-31T04:24:29;17.10;76.00
26707;DHT22;14319;49.422;10.934;2023-07-31T04:26:30;17.00;75.80
26707;DHT22;14319;49.422;10.934;2023-07-31T04:28:30;17.00;75.80
26707;DHT22;14319;49.422;10.934;2023-07-31T04:30:32;17.00;76.20
26707;DHT22;14319;49.422;10.934;2023-07-31T04:32:32;17.10;75.80
26707;DHT22;14319;49.422;10.934;2023-07-31T04:34:33;17.10;76.40
26707;DHT22;14319;49.422;10.934;2023-07-31T04:36:34;16.90;76.50
26707;DHT22;14319;49.422;10.934;2023-07-31T04:38:34;17.00;76.60
26707;DHT22;14319;49.422;10.934;2023-07-31T04:40:35;17.00;75.60
26707;DHT22;14319;49.422;10.934;2023-07-31T04:42:36;17.10;76.60
26707;DHT22;14319;49.422;10.934;2023-07-31T04:44:37;17.10;76.30
26707;DHT22;14319;49.422;10.934;2023-07-31T04:46:37;17.10;76.80
26707;DHT22;14319;49.422;10.934;2023-07-31T04:48:38;17.10;77.20
26707;DHT22;14319;49.422;10.934;2023-07-31T04:50:38;17.10;76.50
26707;DHT22;14319;49.422;10.934;2023-07-31T04:52:39;17.20;76.40
26707;DHT22;14319;49.422;10.934;2023-07-31T04:54:39;17.20;76.60
26707;DHT22;14319;49.422;10.934;2023-07-31T04:56:40;17.20;76.60
26707;DHT22;14319;49.422;10.934;2023-07-31T04:58:41;17.20;76.60
26707;DHT22;14319;49.422;10.934;2023-07-31T05:00:42;17.20;77.30
26707;DHT22;14319;49.422;10.934;2023-07-31T05:02:42;17.20;77.40
26707;DHT22;14319;49.422;10.934;2023-07-31T05:04:43;17.30;76.60
26707;DHT22;14319;49.422;10.934;2023-07-31T05:06:43;17.20;77.80
26707;DHT22;14319;49.422;10.934;2023-07-31T05:08:44;17.20;78.60
26707;DHT22;14319;49.422;10.934;2023-07-31T05:10:45;17.20;76.90
26707;DHT22;14319;49.422;10.934;2023-07-31T05:12:45;17.20;76.40
26707;DHT22;14319;49.422;10.934;2023-07-31T05:14:46;17.20;76.80
26707;DHT22;14319;49.422;10.934;2023-07-31T05:16:46;17.20;75.50
26707;DHT22;14319;49.422;10.934;2023-07-31T05:18:47;17.20;77.20
26707;DHT22;14319;49.422;10.934;2023-07-31T05:20:47;17.20;77.00
26707;DHT22;14319;49.422;10.934;2023-07-31T05:22:48;17.20;76.70
26707;DHT22;14319;49.422;10.934;2023-07-31T05:24:49;17.30;76.50
26707;DHT22;14319;49.422;10.934;2023-07-31T05:26:49;17.30;76.70
26707;DHT22;14319;49.422;10.934;2023-07-31T05:28:50;17.30;76.60
26707;DHT22;14319;49.422;10.934;2023-07-31T05:30:50;17.30;76.60
26707;DHT22;14319;49.422;10.934;2023-07-31T05:32:51;17.40;76.30
26707;DHT22;14319;49.422;10.934;2023-07-31T05:34:52;17.50;75.10
26707;DHT22;14319;49.422;10.934;2023-07-31T05:36:53;17.50;76.40
26707;DHT22;14319;49.422;10.934;2023-07-31T05:38:54;17.50;75.70
26707;DHT22;14319;49.422;10.934;2023-07-31T05:40:54;17.50;74.50
26707;DHT22;14319;49.422;10.934;2023-07-31T05:42:55;17.50;75.20
26707;DHT22;14319;49.422;10.934;2023-07-31T05:44:55;17.40;74.50
26707;DHT22;14319;49.422;10.934;2023-07-31T05:46:56;17.40;75.60
26707;DHT22;14319;49.422;10.934;2023-07-31T05:48:57;17.30;75.30
26707;DHT22;14319;49.422;10.934;2023-07-31T05:50:57;17.30;75.50
26707;DHT22;14319;49.422;10.934;2023-07-31T05:52:58;17.40;75.30
26707;DHT22;14319;49.422;10.934;2023-07-31T05:54:58;17.40;75.60
26707;DHT22;14319;49.422;10.934;2023-07-31T05:56:59;17.40;75.10
26707;DHT22;14319;49.422;10.934;2023-07-31T05:58:59;17.40;76.00
26707;DHT22;14319;49.422;10.934;2023-07-31T06:01:00;17.40;76.90
26707;DHT22;14319;49.422;10.934;2023-07-31T06:03:01;17.40;75.20
26707;DHT22;14319;49.422;10.934;2023-07-31T06:05:01;17.50;75.00
26707;DHT22;14319;49.422;10.934;2023-07-31T06:07:02;17.60;75.90
26707;DHT22;14319;49.422;10.934;2023-07-31T06:09:03;17.60;75.90
26707;DHT22;14319;49.422;10.934;2023-07-31T06:11:04;17.70;74.60
26707;DHT22;14319;49.422;10.934;2023-07-31T06:13:05;17.70;75.40
26707;DHT22;14319;49.422;10.934;2023-07-31T06:15:06;17.80;75.20
26707;DHT22;14319;49.422;10.934;2023-07-31T06:17:07;17.70;75.20
26707;DHT22;14319;49.422;10.934;2023-07-31T06:19:07;17.80;74.50
26707;DHT22;14319;49.422;10.934;2023-07-31T06:21:09;17.70;75.50
26707;DHT22;14319;49.422;10.934;2023-07-31T06:23:10;17.70;76.00
26707;DHT22;14319;49.422;10.934;2023-07-31T06:25:11;17.70;74.60
26707;DHT22;14319;49.422;10.934;2023-07-31T06:27:12;17.70;75.80
26707;DHT22;14319;49.422;10.934;2023-07-31T06:29:13;17.80;75.70
26707;DHT22;14319;49.422;10.934;2023-07-31T06:31:13;17.90;76.90
26707;DHT22;14319;49.422;10.934;2023-07-31T06:33:14;17.90;74.80
26707;DHT22;14319;49.422;10.934;2023-07-31T06:35:14;17.80;75.90
26707;DHT22;14319;49.422;10.934;2023-07-31T06:37:15;17.80;76.20
26707;DHT22;14319;49.422;10.934;2023-07-31T06:39:17;17.80;75.60
26707;DHT22;14319;49.422;10.934;2023-07-31T06:41:17;18.00;75.00
26707;DHT22;14319;49.422;10.934;2023-07-31T06:43:18;18.10;74.40
26707;DHT22;14319;49.422;10.934;2023-07-31T06:45:18;18.10;73.60
26707;DHT22;14319;49.422;10.934;2023-07-31T06:47:19;18.20;74.40
26707;DHT22;14319;49.422;10.934;2023-07-31T06:49:20;18.20;74.00
26707;DHT22;14319;49.422;10.934;2023-07-31T06:51:23;18.20;73.80
26707;DHT22;14319;49.422;10.934;2023-07-31T06:53:24;18.10;75.00
26707;DHT22;14319;49.422;10.934;2023-07-31T06:55:25;18.20;73.60
26707;DHT22;14319;49.422;10.934;2023-07-31T06:57:26;18.20;74.50
26707;DHT22;14319;49.422;10.934;2023-07-31T06:59:26;18.30;74.00
26707;DHT22;14319;49.422;10.934;2023-07-31T07:01:27;18.40;73.30
26707;DHT22;14319;49.422;10.934;2023-07-31T07:03:29;18.40;74.00
26707;DHT22;14319;49.422;10.934;2023-07-31T07:05:29;18.60;73.50
26707;DHT22;14319;49.422;10.934;2023-07-31T07:07:31;18.50;73.40
26707;DHT22;14319;49.422;10.934;2023-07-31T07:09:32;18.60;73.60
26707;DHT22;14319;49.422;10.934;2023-07-31T07:11:33;18.60;71.70
26707;DHT22;14319;49.422;10.934;2023-07-31T07:13:33;18.70;72.70
26707;DHT22;14319;49.422;10.934;2023-07-31T07:15:34;18.60;73.30
26707;DHT22;14319;49.422;10.934;2023-07-31T07:17:34;18.70;73.50
26707;DHT22;14319;49.422;10.934;2023-07-31T07:19:35;18.80;73.70
26707;DHT22;14319;49.422;10.934;2023-07-31T07:21:35;18.80;71.80
26707;DHT22;14319;49.422;10.934;2023-07-31T07:23:36;18.90;72.50
26707;DHT22;14319;49.422;10.934;2023-07-31T07:25:38;18.80;72.50
26707;DHT22;14319;49.422;10.934;2023-07-31T07:27:38;18.80;71.30
26707;DHT22;14319;49.422;10.934;2023-07-31T07:29:39;18.90;71.40
26707;DHT22;14319;49.422;10.934;2023-07-31T07:31:40;19.00;71.10
26707;DHT22;14319;49.422;10.934;2023-07-31T07:33:40;19.00;71.20
26707;DHT22;14319;49.422;10.934;2023-07-31T07:35:41;18.90;70.70
26707;DHT22;14319;49.422;10.934;2023-07-31T07:37:41;18.90;71.30
26707;DHT22;14319;49.422;10.934;2023-07-31T07:39:42;18.80;72.00
26707;DHT22;14319;49.422;10.934;2023-07-31T07:41:43;18.90;71.90
26707;DHT22;14319;49.422;10.934;2023-07-31T07:43:43;19.00;71.90
26707;DHT22;14319;49.422;10.934;2023-07-31T07:45:44;19.10;70.90
26707;DHT22;14319;49.422;10.934;2023-07-31T07:47:45;19.00;70.80
26707;DHT22;14319;49.422;10.934;2023-07-31T07:49:45;19.00;71.20
26707;DHT22;14319;49.422;10.934;2023-07-31T07:51:48;18.90;71.00
26707;DHT22;14319;49.422;10.934;2023-07-31T07:53:49;19.00;71.70
26707;DHT22;14319;49.422;10.934;2023-07-31T07:55:49;19.10;72.10
26707;DHT22;14319;49.422;10.934;2023-07-31T07:57:50;19.10;71.10
26707;DHT22;14319;49.422;10.934;2023-07-31T07:59:50;19.10;72.40
26707;DHT22;14319;49.422;10.934;2023-07-31T08:01:51;19.20;71.10
26707;DHT22;14319;49.422;10.934;2023-07-31T08:03:52;19.10;71.30
26707;DHT22;14319;49.422;10.934;2023-07-31T08:05:52;19.20;71.80
26707;DHT22;14319;49.422;10.934;2023-07-31T08:07:57;19.20;71.50
26707;DHT22;14319;49.422;10.934;2023-07-31T08:09:58;19.20;70.60
26707;DHT22;14319;49.422;10.934;2023-07-31T08:11:58;19.20;71.00
26707;DHT22;14319;49.422;10.934;2023-07-31T08:14:03;19.20;70.30
26707;DHT22;14319;49.422;10.934;2023-07-31T08:16:04;19.20;71.10
26707;DHT22;14319;49.422;10.934;2023-07-31T08:18:05;19.20;71.30
26707;DHT22;14319;49.422;10.934;2023-07-31T08:20:06;19.30;72.40
26707;DHT22;14319;49.422;10.934;2023-07-31T08:22:07;19.30;71.10
26707;DHT22;14319;49.422;10.934;2023-07-31T08:24:07;19.30;71.90
26707;DHT22;14319;49.422;10.934;2023-07-31T08:26:14;19.40;70.10
26707;DHT22;14319;49.422;10.934;2023-07-31T08:28:15;19.50;70.70
26707;DHT22;14319;49.422;10.934;2023-07-31T08:30:16;19.60;70.50
26707;DHT22;14319;49.422;10.934;2023-07-31T08:32:16;19.70;70.90
26707;DHT22;14319;49.422;10.934;2023-07-31T08:34:17;19.60;70.80
26707;DHT22;14319;49.422;10.934;2023-07-31T08:36:17;19.70;71.10
26707;DHT22;14319;49.422;10.934;2023-07-31T08:38:18;19.60;70.90
26707;DHT22;14319;49.422;10.934;2023-07-31T08:40:18;19.70;71.90
26707;DHT22;14319;49.422;10.934;2023-07-31T08:42:19;19.70;70.90
26707;DHT22;14319;49.422;10.934;2023-07-31T08:44:20;19.70;71.40
26707;DHT22;14319;49.422;10.934;2023-07-31T08:46:21;19.70;72.10
26707;DHT22;14319;49.422;10.934;2023-07-31T08:48:23;19.70;70.80
26707;DHT22;14319;49.422;10.934;2023-07-31T08:50:24;19.80;70.90
26707;DHT22;14319;49.422;10.934;2023-07-31T08:52:25;19.80;72.50
26707;DHT22;14319;49.422;10.934;2023-07-31T08:54:25;19.90;71.90
26707;DHT22;14319;49.422;10.934;2023-07-31T08:56:30;19.90;72.60
26707;DHT22;14319;49.422;10.934;2023-07-31T08:58:32;20.00;70.20
26707;DHT22;14319;49.422;10.934;2023-07-31T09:00:33;20.00;68.90
26707;DHT22;14319;49.422;10.934;2023-07-31T09:04:43;20.00;70.20
26707;DHT22;14319;49.422;10.934;2023-07-31T09:06:44;20.00;70.90
26707;DHT22;14319;49.422;10.934;2023-07-31T09:08:45;20.00;69.80
26707;DHT22;14319;49.422;10.934;2023-07-31T09:10:46;20.00;69.20
26707;DHT22;14319;49.422;10.934;2023-07-31T09:12:48;19.90;70.50
26707;DHT22;14319;49.422;10.934;2023-07-31T09:14:49;19.90;69.90
26707;DHT22;14319;49.422;10.934;2023-07-31T09:16:55;19.90;70.40
26707;DHT22;14319;49.422;10.934;2023-07-31T09:18:56;20.00;69.40
26707;DHT22;14319;49.422;10.934;2023-07-31T09:21:06;20.20;70.50
26707;DHT22;14319;49.422;10.934;2023-07-31T09:23:13;20.30;70.40
26707;DHT22;14319;49.422;10.934;2023-07-31T09:27:16;20.40;70.00
26707;DHT22;14319;49.422;10.934;2023-07-31T09:29:19;20.50;68.80
26707;DHT22;14319;49.422;10.934;2023-07-31T09:31:32;20.50;69.50
26707;DHT22;14319;49.422;10.934;2023-07-31T09:33:32;20.50;70.00
26707;DHT22;14319;49.422;10.934;2023-07-31T09:35:34;20.60;69.10
26707;DHT22;14319;49.422;10.934;2023-07-31T09:37:35;20.80;68.60
26707;DHT22;14319;49.422;10.934;2023-07-31T09:39:47;20.80;68.30
26707;DHT22;14319;49.422;10.934;2023-07-31T09:41:54;20.80;68.20
26707;DHT22;14319;49.422;10.934;2023-07-31T09:43:55;20.80;67.80
26707;DHT22;14319;49.422;10.934;2023-07-31T09:45:56;20.60;69.10
26707;DHT22;14319;49.422;10.934;2023-07-31T09:47:57;20.60;69.10
26707;DHT22;14319;49.422;10.934;2023-07-31T09:49:57;20.40;69.20
26707;DHT22;14319;49.422;10.934;2023-07-31T09:51:58;20.50;70.30
26707;DHT22;14319;49.422;10.934;2023-07-31T09:54:00;20.40;70.40
26707;DHT22;14319;49.422;10.934;2023-07-31T09:56:02;20.40;69.50
26707;DHT22;14319;49.422;10.934;2023-07-31T09:58:05;20.60;69.20
26707;DHT22;14319;49.422;10.934;2023-07-31T10:00:06;20.60;67.80
26707;DHT22;14319;49.422;10.934;2023-07-31T10:02:15;20.70;68.10
26707;DHT22;14319;49.422;10.934;2023-07-31T10:04:24;20.70;68.60
26707;DHT22;14319;49.422;10.934;2023-07-31T10:06:27;20.70;69.40
26707;DHT22;14319;49.422;10.934;2023-07-31T10:08:30;20.80;68.80
26707;DHT22;14319;49.422;10.934;2023-07-31T10:10:33;20.70;69.70
26707;DHT22;14319;49.422;10.934;2023-07-31T10:12:35;20.70;68.90
26707;DHT22;14319;49.422;10.934;2023-07-31T10:14:36;20.60;70.90
26707;DHT22;14319;49.422;10.934;2023-07-31T10:16:39;20.50;70.30
26707;DHT22;14319;49.422;10.934;2023-07-31T10:18:41;20.50;68.70
26707;DHT22;14319;49.422;10.934;2023-07-31T10:20:42;20.70;67.80
26707;DHT22;14319;49.422;10.934;2023-07-31T10:22:46;20.80;67.10
26707;DHT22;14319;49.422;10.934;2023-07-31T10:24:48;20.70;67.80
26707;DHT22;14319;49.422;10.934;2023-07-31T10:26:51;20.60;67.10
26707;DHT22;14319;49.422;10.934;2023-07-31T10:28:52;20.70;68.20
26707;DHT22;14319;49.422;10.934;2023-07-31T10:30:54;20.60;66.80
26707;DHT22;14319;49.422;10.934;2023-07-31T10:32:55;20.50;67.40
26707;DHT22;14319;49.422;10.934;2023-07-31T10:34:56;20.70;67.90
26707;DHT22;14319;49.422;10.934;2023-07-31T10:37:24;20.80;67.20
26707;DHT22;14319;49.422;10.934;2023-07-31T10:39:37;20.70;68.30
26707;DHT22;14319;49.422;10.934;2023-07-31T10:41:40;20.50;66.60
26707;DHT22;14319;49.422;10.934;2023-07-31T10:43:41;20.50;68.40
26707;DHT22;14319;49.422;10.934;2023-07-31T10:45:44;20.50;68.50
26707;DHT22;14319;49.422;10.934;2023-07-31T10:47:46;20.40;68.90
26707;DHT22;14319;49.422;10.934;2023-07-31T10:49:46;20.50;68.20
26707;DHT22;14319;49.422;10.934;2023-07-31T10:51:50;20.80;69.00
26707;DHT22;14319;49.422;10.934;2023-07-31T10:54:13;20.80;68.50
26707;DHT22;14319;49.422;10.934;2023-07-31T10:56:15;20.80;68.00
26707;DHT22;14319;49.422;10.934;2023-07-31T10:58:20;20.80;66.40
26707;DHT22;14319;49.422;10.934;2023-07-31T11:00:27;20.90;67.30
26707;DHT22;14319;49.422;10.934;2023-07-31T11:02:33;21.00;65.60
26707;DHT22;14319;49.422;10.934;2023-07-31T11:04:33;21.00;65.20
26707;DHT22;14319;49.422;10.934;2023-07-31T11:06:36;21.00;65.80
26707;DHT22;14319;49.422;10.934;2023-07-31T11:08:47;21.10;65.50
26707;DHT22;14319;49.422;10.934;2023-07-31T11:13:04;21.10;64.20
26707;DHT22;14319;49.422;10.934;2023-07-31T11:15:05;20.90;64.00
26707;DHT22;14319;49.422;10.934;2023-07-31T11:17:07;21.00;65.70
26707;DHT22;14319;49.422;10.934;2023-07-31T11:19:08;21.00;67.20
26707;DHT22;14319;49.422;10.934;2023-07-31T11:21:13;21.00;66.00
26707;DHT22;14319;49.422;10.934;2023-07-31T11:23:17;20.90;65.80
26707;DHT22;14319;49.422;10.934;2023-07-31T11:25:18;20.90;66.40
26707;DHT22;14319;49.422;10.934;2023-07-31T11:27:19;20.80;66.80
26707;DHT22;14319;49.422;10.934;2023-07-31T11:29:20;20.80;65.80
26707;DHT22;14319;49.422;10.934;2023-07-31T11:31:21;20.90;67.50
26707;DHT22;14319;49.422;10.934;2023-07-31T11:33:22;21.00;65.90
26707;DHT22;14319;49.422;10.934;2023-07-31T11:35:22;21.00;67.30
26707;DHT22;14319;49.422;10.934;2023-07-31T11:37:23;21.10;67.90
26707;DHT22;14319;49.422;10.934;2023-07-31T11:39:24;21.30;66.20
26707;DHT22;14319;49.422;10.934;2023-07-31T11:41:25;21.30;66.80
26707;DHT22;14319;49.422;10.934;2023-07-31T11:43:25;21.30;67.50
26707;DHT22;14319;49.422;10.934;2023-07-31T11:45:27;21.40;66.80
26707;DHT22;14319;49.422;10.934;2023-07-31T11:47:28;21.50;65.90
26707;DHT22;14319;49.422;10.934;2023-07-31T11:49:29;21.40;66.50
26707;DHT22;14319;49.422;10.934;2023-07-31T11:51:30;21.30;64.90
26707;DHT22;14319;49.422;10.934;2023-07-31T11:55:40;21.40;65.80
26707;DHT22;14319;49.422;10.934;2023-07-31T11:57:41;21.40;65.30
26707;DHT22;14319;49.422;10.934;2023-07-31T11:59:43;21.40;66.00
26707;DHT22;14319;49.422;10.934;2023-07-31T12:01:43;21.50;67.10
26707;DHT22;14319;49.422;10.934;2023-07-31T12:03:45;21.60;66.80
26707;DHT22;14319;49.422;10.934;2023-07-31T12:05:47;21.60;65.30
26707;DHT22;14319;49.422;10.934;2023-07-31T12:07:53;21.70;66.70
26707;DHT22;14319;49.422;10.934;2023-07-31T12:09:54;21.70;66.30
26707;DHT22;14319;49.422;10.934;2023-07-31T12:11:55;21.90;65.50
26707;DHT22;14319;49.422;10.934;2023-07-31T12:13:56;21.80;62.70
26707;DHT22;14319;49.422;10.934;2023-07-31T12:15:58;21.90;63.80
26707;DHT22;14319;49.422;10.934;2023-07-31T12:17:59;21.60;63.10
26707;DHT22;14319;49.422;10.934;2023-07-31T12:20:00;21.60;63.80
26707;DHT22;14319;49.422;10.934;2023-07-31T12:22:00;21.70;64.00
26707;DHT22;14319;49.422;10.934;2023-07-31T12:24:02;21.70;63.80
26707;DHT22;14319;49.422;10.934;2023-07-31T12:26:07;21.80;65.80
26707;DHT22;14319;49.422;10.934;2023-07-31T12:28:08;21.90;65.20
26707;DHT22;14319;49.422;10.934;2023-07-31T12:30:33;22.00;64.70
26707;DHT22;14319;49.422;10.934;2023-07-31T12:32:34;22.10;63.10
26707;DHT22;14319;49.422;10.934;2023-07-31T12:34:42;22.00;63.60
26707;DHT22;14319;49.422;10.934;2023-07-31T12:36:44;22.10;63.40
26707;DHT22;14319;49.422;10.934;2023-07-31T12:38:44;22.20;63.10
26707;DHT22;14319;49.422;10.934;2023-07-31T12:40:45;21.90;64.10
26707;DHT22;14319;49.422;10.934;2023-07-31T12:42:47;21.80;63.30
26707;DHT22;14319;49.422;10.934;2023-07-31T12:44:47;21.60;62.80
26707;DHT22;14319;49.422;10.934;2023-07-31T12:46:48;21.60;64.40
26707;DHT22;14319;49.422;10.934;2023-07-31T12:48:48;21.60;63.40